sensor_id;sensor_type;location;lat;lon;timestamp;P1;durP1;ratioP1;P2;durP2;ratioP2
79460;SDS011;68929;42.666;23.324;2023-10-13T00:01:23;17.85;;;8.48;;
79460;SDS011;68929;42.666;23.324;2023-10-13T00:03:49;16.83;;;9.25;;
79460;SDS011;68929;42.666;23.324;2023-10-13T00:06:17;16.55;;;8.95;;
79460;SDS011;68929;42.666;23.324;2023-10-13T00:08:43;18.30;;;10.38;;
79460;SDS011;68929;42.666;23.324;2023-10-13T00:11:15;15.45;;;8.80;;
79460;SDS011;68929;42.666;23.324;2023-10-13T00:13:41;15.88;;;9.55;;
79460;SDS011;68929;42.666;23.324;2023-10-13T00:16:19;16.75;;;9.38;;
79460;SDS011;68929;42.666;23.324;2023-10-13T00:18:52;15.60;;;9.15;;
79460;SDS011;68929;42.666;23.324;2023-10-13T00:21:22;12.63;;;9.23;;
79460;SDS011;68929;42.666;23.324;2023-10-13T00:24:02;19.83;;;8.98;;
79460;SDS011;68929;42.666;23.324;2023-10-13T00:29:08;17.30;;;9.55;;
79460;SDS011;68929;42.666;23.324;2023-10-13T00:31:37;12.60;;;9.05;;
79460;SDS011;68929;42.666;23.324;2023-10-13T00:34:12;13.55;;;8.82;;
79460;SDS011;68929;42.666;23.324;2023-10-13T00:36:45;14.15;;;8.82;;
79460;SDS011;68929;42.666;23.324;2023-10-13T00:39:14;18.52;;;8.90;;
79460;SDS011;68929;42.666;23.324;2023-10-13T00:41:43;15.15;;;9.15;;
79460;SDS011;68929;42.666;23.324;2023-10-13T00:47:03;13.35;;;8.95;;
79460;SDS011;68929;42.666;23.324;2023-10-13T00:49:32;15.07;;;8.32;;
79460;SDS011;68929;42.666;23.324;2023-10-13T00:52:25;14.07;;;8.88;;
79460;SDS011;68929;42.666;23.324;2023-10-13T00:54:50;13.68;;;8.30;;
79460;SDS011;68929;42.666;23.324;2023-10-13T00:57:18;14.90;;;9.15;;
79460;SDS011;68929;42.666;23.324;2023-10-13T00:59:54;12.75;;;8.55;;
79460;SDS011;68929;42.666;23.324;2023-10-13T01:02:22;13.10;;;9.07;;
79460;SDS011;68929;42.666;23.324;2023-10-13T01:05:00;12.15;;;8.63;;
79460;SDS011;68929;42.666;23.324;2023-10-13T01:07:26;14.27;;;8.32;;
79460;SDS011;68929;42.666;23.324;2023-10-13T01:09:51;12.98;;;8.75;;
79460;SDS011;68929;42.666;23.324;2023-10-13T01:12:17;14.35;;;8.48;;
79460;SDS011;68929;42.666;23.324;2023-10-13T01:14:42;10.32;;;8.65;;
79460;SDS011;68929;42.666;23.324;2023-10-13T01:17:09;16.63;;;9.70;;
79460;SDS011;68929;42.666;23.324;2023-10-13T01:19:35;17.85;;;9.95;;
79460;SDS011;68929;42.666;23.324;2023-10-13T01:22:07;15.52;;;9.65;;
79460;SDS011;68929;42.666;23.324;2023-10-13T01:24:32;17.13;;;10.30;;
79460;SDS011;68929;42.666;23.324;2023-10-13T01:27:00;13.65;;;9.88;;
79460;SDS011;68929;42.666;23.324;2023-10-13T01:29:42;13.52;;;9.52;;
79460;SDS011;68929;42.666;23.324;2023-10-13T01:32:12;13.02;;;9.00;;
79460;SDS011;68929;42.666;23.324;2023-10-13T01:34:38;12.13;;;8.73;;
79460;SDS011;68929;42.666;23.324;2023-10-13T01:37:04;14.10;;;8.65;;
79460;SDS011;68929;42.666;23.324;2023-10-13T01:39:31;11.98;;;8.38;;
79460;SDS011;68929;42.666;23.324;2023-10-13T01:41:56;12.15;;;8.50;;
79460;SDS011;68929;42.666;23.324;2023-10-13T01:44:23;11.00;;;7.50;;
79460;SDS011;68929;42.666;23.324;2023-10-13T01:47:00;10.43;;;7.90;;
79460;SDS011;68929;42.666;23.324;2023-10-13T01:49:32;11.63;;;7.85;;
79460;SDS011;68929;42.666;23.324;2023-10-13T01:52:07;11.40;;;8.30;;
79460;SDS011;68929;42.666;23.324;2023-10-13T01:54:41;14.35;;;7.97;;
79460;SDS011;68929;42.666;23.324;2023-10-13T01:57:11;14.65;;;8.30;;
79460;SDS011;68929;42.666;23.324;2023-10-13T01:59:46;10.93;;;7.70;;
79460;SDS011;68929;42.666;23.324;2023-10-13T02:02:13;14.45;;;8.60;;
79460;SDS011;68929;42.666;23.324;2023-10-13T02:04:39;14.63;;;8.88;;
79460;SDS011;68929;42.666;23.324;2023-10-13T02:07:18;13.80;;;8.50;;
79460;SDS011;68929;42.666;23.324;2023-10-13T02:09:45;11.48;;;8.43;;
79460;SDS011;68929;42.666;23.324;2023-10-13T02:12:10;14.18;;;8.85;;
79460;SDS011;68929;42.666;23.324;2023-10-13T02:14:36;11.57;;;8.70;;
79460;SDS011;68929;42.666;23.324;2023-10-13T02:17:03;14.95;;;8.57;;
79460;SDS011;68929;42.666;23.324;2023-10-13T02:19:42;15.80;;;8.68;;
79460;SDS011;68929;42.666;23.324;2023-10-13T02:22:11;16.35;;;9.00;;
79460;SDS011;68929;42.666;23.324;2023-10-13T02:24:49;14.27;;;8.93;;
79460;SDS011;68929;42.666;23.324;2023-10-13T02:27:17;13.82;;;8.38;;
79460;SDS011;68929;42.666;23.324;2023-10-13T02:29:49;18.00;;;8.57;;
79460;SDS011;68929;42.666;23.324;2023-10-13T02:32:14;11.93;;;8.50;;
79460;SDS011;68929;42.666;23.324;2023-10-13T02:34:46;10.80;;;8.43;;
79460;SDS011;68929;42.666;23.324;2023-10-13T02:37:12;16.33;;;9.20;;
79460;SDS011;68929;42.666;23.324;2023-10-13T02:39:38;15.15;;;8.82;;
79460;SDS011;68929;42.666;23.324;2023-10-13T02:42:09;12.35;;;8.32;;
79460;SDS011;68929;42.666;23.324;2023-10-13T02:44:41;10.85;;;8.15;;
79460;SDS011;68929;42.666;23.324;2023-10-13T02:47:11;15.00;;;8.85;;
79460;SDS011;68929;42.666;23.324;2023-10-13T02:49:39;13.68;;;8.85;;
79460;SDS011;68929;42.666;23.324;2023-10-13T02:52:11;11.75;;;8.65;;
79460;SDS011;68929;42.666;23.324;2023-10-13T02:54:37;11.77;;;9.20;;
79460;SDS011;68929;42.666;23.324;2023-10-13T02:57:22;13.50;;;9.02;;
79460;SDS011;68929;42.666;23.324;2023-10-13T02:59:48;13.65;;;8.93;;
79460;SDS011;68929;42.666;23.324;2023-10-13T03:02:22;14.20;;;8.80;;
79460;SDS011;68929;42.666;23.324;2023-10-13T03:04:54;15.95;;;8.25;;
79460;SDS011;68929;42.666;23.324;2023-10-13T03:07:27;18.42;;;9.65;;
79460;SDS011;68929;42.666;23.324;2023-10-13T03:09:54;13.65;;;8.75;;
79460;SDS011;68929;42.666;23.324;2023-10-13T03:14:50;17.88;;;10.40;;
79460;SDS011;68929;42.666;23.324;2023-10-13T03:17:22;16.20;;;10.48;;
79460;SDS011;68929;42.666;23.324;2023-10-13T03:19:58;18.10;;;11.07;;
79460;SDS011;68929;42.666;23.324;2023-10-13T03:22:24;17.27;;;10.77;;
79460;SDS011;68929;42.666;23.324;2023-10-13T03:24:57;21.77;;;9.77;;
79460;SDS011;68929;42.666;23.324;2023-10-13T03:27:31;16.05;;;11.00;;
79460;SDS011;68929;42.666;23.324;2023-10-13T03:30:13;18.63;;;10.30;;
79460;SDS011;68929;42.666;23.324;2023-10-13T03:32:41;16.20;;;9.20;;
79460;SDS011;68929;42.666;23.324;2023-10-13T03:35:12;15.15;;;9.55;;
79460;SDS011;68929;42.666;23.324;2023-10-13T03:37:50;12.90;;;11.27;;
79460;SDS011;68929;42.666;23.324;2023-10-13T03:40:16;16.48;;;10.10;;
79460;SDS011;68929;42.666;23.324;2023-10-13T03:42:44;22.85;;;11.10;;
79460;SDS011;68929;42.666;23.324;2023-10-13T03:45:22;15.73;;;10.13;;
79460;SDS011;68929;42.666;23.324;2023-10-13T03:47:49;20.90;;;10.23;;
79460;SDS011;68929;42.666;23.324;2023-10-13T03:50:17;17.10;;;10.20;;
79460;SDS011;68929;42.666;23.324;2023-10-13T03:52:54;17.38;;;10.25;;
79460;SDS011;68929;42.666;23.324;2023-10-13T03:55:23;12.88;;;9.05;;
79460;SDS011;68929;42.666;23.324;2023-10-13T03:57:54;12.77;;;9.27;;
79460;SDS011;68929;42.666;23.324;2023-10-13T04:00:20;13.93;;;7.88;;
79460;SDS011;68929;42.666;23.324;2023-10-13T04:02:51;13.95;;;8.07;;
79460;SDS011;68929;42.666;23.324;2023-10-13T04:05:31;11.57;;;6.95;;
79460;SDS011;68929;42.666;23.324;2023-10-13T04:08:06;12.65;;;7.95;;
79460;SDS011;68929;42.666;23.324;2023-10-13T04:10:54;14.82;;;8.57;;
79460;SDS011;68929;42.666;23.324;2023-10-13T04:13:21;13.50;;;8.23;;
79460;SDS011;68929;42.666;23.324;2023-10-13T04:16:09;13.75;;;9.13;;
79460;SDS011;68929;42.666;23.324;2023-10-13T04:18:57;16.02;;;9.45;;
79460;SDS011;68929;42.666;23.324;2023-10-13T04:21:23;12.45;;;9.48;;
79460;SDS011;68929;42.666;23.324;2023-10-13T04:24:06;18.40;;;11.03;;
79460;SDS011;68929;42.666;23.324;2023-10-13T04:26:54;21.45;;;12.13;;
79460;SDS011;68929;42.666;23.324;2023-10-13T04:29:38;19.88;;;11.23;;
79460;SDS011;68929;42.666;23.324;2023-10-13T04:32:17;17.00;;;11.30;;
79460;SDS011;68929;42.666;23.324;2023-10-13T04:34:58;17.77;;;10.60;;
79460;SDS011;68929;42.666;23.324;2023-10-13T04:37:54;19.45;;;12.18;;
79460;SDS011;68929;42.666;23.324;2023-10-13T04:40:25;17.42;;;10.88;;
79460;SDS011;68929;42.666;23.324;2023-10-13T04:42:51;21.10;;;12.43;;
79460;SDS011;68929;42.666;23.324;2023-10-13T04:45:29;25.80;;;13.18;;
79460;SDS011;68929;42.666;23.324;2023-10-13T04:47:56;21.48;;;14.15;;
79460;SDS011;68929;42.666;23.324;2023-10-13T04:50:41;28.40;;;13.50;;
79460;SDS011;68929;42.666;23.324;2023-10-13T04:53:15;20.00;;;13.35;;
79460;SDS011;68929;42.666;23.324;2023-10-13T04:56:19;19.45;;;12.25;;
79460;SDS011;68929;42.666;23.324;2023-10-13T04:59:00;20.30;;;11.68;;
79460;SDS011;68929;42.666;23.324;2023-10-13T05:01:51;17.98;;;12.32;;
79460;SDS011;68929;42.666;23.324;2023-10-13T05:04:23;23.92;;;14.50;;
79460;SDS011;68929;42.666;23.324;2023-10-13T05:07:17;24.35;;;14.05;;
79460;SDS011;68929;42.666;23.324;2023-10-13T05:10:01;25.70;;;13.88;;
79460;SDS011;68929;42.666;23.324;2023-10-13T05:12:51;28.27;;;13.05;;
79460;SDS011;68929;42.666;23.324;2023-10-13T05:15:43;20.02;;;13.77;;
79460;SDS011;68929;42.666;23.324;2023-10-13T05:18:28;24.15;;;13.90;;
79460;SDS011;68929;42.666;23.324;2023-10-13T05:21:12;23.95;;;13.32;;
79460;SDS011;68929;42.666;23.324;2023-10-13T05:23:58;32.55;;;13.48;;
79460;SDS011;68929;42.666;23.324;2023-10-13T05:26:48;25.23;;;13.82;;
79460;SDS011;68929;42.666;23.324;2023-10-13T05:29:41;24.08;;;15.02;;
79460;SDS011;68929;42.666;23.324;2023-10-13T05:32:27;25.40;;;16.38;;
79460;SDS011;68929;42.666;23.324;2023-10-13T05:35:16;30.85;;;15.80;;
79460;SDS011;68929;42.666;23.324;2023-10-13T05:38:04;23.17;;;12.43;;
79460;SDS011;68929;42.666;23.324;2023-10-13T05:40:53;27.52;;;13.48;;
79460;SDS011;68929;42.666;23.324;2023-10-13T05:43:46;26.55;;;13.77;;
79460;SDS011;68929;42.666;23.324;2023-10-13T05:46:31;24.50;;;13.65;;
79460;SDS011;68929;42.666;23.324;2023-10-13T05:49:03;22.77;;;13.27;;
79460;SDS011;68929;42.666;23.324;2023-10-13T05:51:47;31.52;;;17.23;;
79460;SDS011;68929;42.666;23.324;2023-10-13T05:54:23;30.23;;;15.43;;
79460;SDS011;68929;42.666;23.324;2023-10-13T05:57:07;34.67;;;14.82;;
79460;SDS011;68929;42.666;23.324;2023-10-13T06:00:05;27.85;;;14.30;;
79460;SDS011;68929;42.666;23.324;2023-10-13T06:02:49;28.95;;;13.90;;
79460;SDS011;68929;42.666;23.324;2023-10-13T06:05:34;27.85;;;14.30;;
79460;SDS011;68929;42.666;23.324;2023-10-13T06:08:18;28.90;;;13.90;;
79460;SDS011;68929;42.666;23.324;2023-10-13T06:11:02;20.60;;;14.48;;
79460;SDS011;68929;42.666;23.324;2023-10-13T06:13:50;17.55;;;9.60;;
79460;SDS011;68929;42.666;23.324;2023-10-13T06:16:41;26.00;;;14.07;;
79460;SDS011;68929;42.666;23.324;2023-10-13T06:19:25;23.52;;;13.32;;
79460;SDS011;68929;42.666;23.324;2023-10-13T06:22:13;19.95;;;12.93;;
79460;SDS011;68929;42.666;23.324;2023-10-13T06:24:59;17.05;;;11.25;;
79460;SDS011;68929;42.666;23.324;2023-10-13T06:27:44;15.63;;;10.70;;
79460;SDS011;68929;42.666;23.324;2023-10-13T06:30:28;19.20;;;11.38;;
79460;SDS011;68929;42.666;23.324;2023-10-13T06:32:53;32.70;;;17.27;;
79460;SDS011;68929;42.666;23.324;2023-10-13T06:35:19;26.67;;;15.80;;
79460;SDS011;68929;42.666;23.324;2023-10-13T06:37:48;27.52;;;15.77;;
79460;SDS011;68929;42.666;23.324;2023-10-13T06:40:13;23.48;;;14.20;;
79460;SDS011;68929;42.666;23.324;2023-10-13T06:42:51;21.50;;;13.93;;
79460;SDS011;68929;42.666;23.324;2023-10-13T06:45:19;27.77;;;14.07;;
79460;SDS011;68929;42.666;23.324;2023-10-13T06:47:46;22.33;;;14.63;;
79460;SDS011;68929;42.666;23.324;2023-10-13T06:50:13;13.77;;;10.82;;
79460;SDS011;68929;42.666;23.324;2023-10-13T06:52:47;16.95;;;10.20;;
79460;SDS011;68929;42.666;23.324;2023-10-13T06:55:12;19.75;;;15.18;;
79460;SDS011;68929;42.666;23.324;2023-10-13T06:57:42;16.15;;;12.32;;
79460;SDS011;68929;42.666;23.324;2023-10-13T07:00:09;15.98;;;11.70;;
79460;SDS011;68929;42.666;23.324;2023-10-13T07:02:51;14.20;;;10.77;;
79460;SDS011;68929;42.666;23.324;2023-10-13T07:05:36;21.52;;;14.27;;
79460;SDS011;68929;42.666;23.324;2023-10-13T07:08:08;18.55;;;11.32;;
79460;SDS011;68929;42.666;23.324;2023-10-13T07:10:46;24.92;;;13.93;;
79460;SDS011;68929;42.666;23.324;2023-10-13T07:13:44;21.73;;;13.55;;
79460;SDS011;68929;42.666;23.324;2023-10-13T07:16:31;25.42;;;13.93;;
79460;SDS011;68929;42.666;23.324;2023-10-13T07:19:25;16.17;;;10.95;;
79460;SDS011;68929;42.666;23.324;2023-10-13T07:21:54;17.48;;;11.98;;
79460;SDS011;68929;42.666;23.324;2023-10-13T07:24:46;14.68;;;9.25;;
79460;SDS011;68929;42.666;23.324;2023-10-13T07:27:17;25.30;;;15.15;;
79460;SDS011;68929;42.666;23.324;2023-10-13T07:29:48;13.27;;;9.60;;
79460;SDS011;68929;42.666;23.324;2023-10-13T07:32:42;16.48;;;10.18;;
79460;SDS011;68929;42.666;23.324;2023-10-13T07:35:15;21.38;;;13.65;;
79460;SDS011;68929;42.666;23.324;2023-10-13T07:37:44;18.83;;;11.65;;
79460;SDS011;68929;42.666;23.324;2023-10-13T07:40:14;24.45;;;14.93;;
79460;SDS011;68929;42.666;23.324;2023-10-13T07:42:57;24.95;;;14.88;;
79460;SDS011;68929;42.666;23.324;2023-10-13T07:45:29;23.27;;;13.30;;
79460;SDS011;68929;42.666;23.324;2023-10-13T07:48:06;29.58;;;15.90;;
79460;SDS011;68929;42.666;23.324;2023-10-13T07:50:59;29.08;;;16.25;;
79460;SDS011;68929;42.666;23.324;2023-10-13T07:53:28;27.63;;;16.00;;
79460;SDS011;68929;42.666;23.324;2023-10-13T07:58:28;17.40;;;11.93;;
79460;SDS011;68929;42.666;23.324;2023-10-13T08:01:05;16.80;;;10.02;;
79460;SDS011;68929;42.666;23.324;2023-10-13T08:03:34;18.95;;;10.68;;
79460;SDS011;68929;42.666;23.324;2023-10-13T08:06:09;16.33;;;11.38;;
79460;SDS011;68929;42.666;23.324;2023-10-13T08:08:35;33.33;;;19.17;;
79460;SDS011;68929;42.666;23.324;2023-10-13T08:11:10;33.08;;;18.73;;
79460;SDS011;68929;42.666;23.324;2023-10-13T08:14:07;25.95;;;12.52;;
79460;SDS011;68929;42.666;23.324;2023-10-13T08:16:43;21.02;;;13.05;;
79460;SDS011;68929;42.666;23.324;2023-10-13T08:19:17;29.63;;;15.52;;
79460;SDS011;68929;42.666;23.324;2023-10-13T08:22:04;41.10;;;20.02;;
79460;SDS011;68929;42.666;23.324;2023-10-13T08:24:43;29.13;;;17.23;;
79460;SDS011;68929;42.666;23.324;2023-10-13T08:27:09;34.28;;;18.02;;
79460;SDS011;68929;42.666;23.324;2023-10-13T08:29:41;26.33;;;15.63;;
79460;SDS011;68929;42.666;23.324;2023-10-13T08:32:29;30.00;;;17.48;;
79460;SDS011;68929;42.666;23.324;2023-10-13T08:34:55;35.92;;;19.38;;
79460;SDS011;68929;42.666;23.324;2023-10-13T08:37:25;34.60;;;19.02;;
79460;SDS011;68929;42.666;23.324;2023-10-13T08:39:55;30.25;;;20.15;;
79460;SDS011;68929;42.666;23.324;2023-10-13T08:42:28;34.90;;;21.33;;
79460;SDS011;68929;42.666;23.324;2023-10-13T08:47:51;32.03;;;19.80;;
79460;SDS011;68929;42.666;23.324;2023-10-13T08:50:42;28.60;;;18.17;;
79460;SDS011;68929;42.666;23.324;2023-10-13T08:53:31;36.30;;;19.60;;
79460;SDS011;68929;42.666;23.324;2023-10-13T08:56:23;32.58;;;19.75;;
79460;SDS011;68929;42.666;23.324;2023-10-13T08:58:59;39.08;;;20.65;;
79460;SDS011;68929;42.666;23.324;2023-10-13T09:01:34;28.98;;;18.92;;
79460;SDS011;68929;42.666;23.324;2023-10-13T09:04:50;36.03;;;22.05;;
79460;SDS011;68929;42.666;23.324;2023-10-13T09:07:43;33.20;;;21.30;;
79460;SDS011;68929;42.666;23.324;2023-10-13T09:10:12;40.67;;;24.23;;
79460;SDS011;68929;42.666;23.324;2023-10-13T09:13:33;37.95;;;24.88;;
79460;SDS011;68929;42.666;23.324;2023-10-13T09:16:10;42.47;;;22.73;;
79460;SDS011;68929;42.666;23.324;2023-10-13T09:19:02;36.05;;;21.65;;
79460;SDS011;68929;42.666;23.324;2023-10-13T09:21:41;29.15;;;19.52;;
79460;SDS011;68929;42.666;23.324;2023-10-13T09:24:10;24.48;;;16.73;;
79460;SDS011;68929;42.666;23.324;2023-10-13T09:26:43;41.22;;;21.55;;
79460;SDS011;68929;42.666;23.324;2023-10-13T09:29:16;39.45;;;21.65;;
79460;SDS011;68929;42.666;23.324;2023-10-13T09:31:57;23.92;;;14.48;;
79460;SDS011;68929;42.666;23.324;2023-10-13T09:34:28;25.33;;;18.50;;
79460;SDS011;68929;42.666;23.324;2023-10-13T09:37:03;39.08;;;19.85;;
79460;SDS011;68929;42.666;23.324;2023-10-13T09:39:57;34.28;;;17.05;;
79460;SDS011;68929;42.666;23.324;2023-10-13T09:42:50;33.53;;;15.43;;
79460;SDS011;68929;42.666;23.324;2023-10-13T09:45:15;29.23;;;14.45;;
79460;SDS011;68929;42.666;23.324;2023-10-13T09:47:43;30.60;;;13.93;;
79460;SDS011;68929;42.666;23.324;2023-10-13T09:50:22;26.73;;;12.88;;
79460;SDS011;68929;42.666;23.324;2023-10-13T09:52:56;31.13;;;12.95;;
79460;SDS011;68929;42.666;23.324;2023-10-13T09:55:44;34.58;;;13.05;;
79460;SDS011;68929;42.666;23.324;2023-10-13T09:58:37;25.15;;;11.55;;
79460;SDS011;68929;42.666;23.324;2023-10-13T10:01:12;19.55;;;12.23;;
79460;SDS011;68929;42.666;23.324;2023-10-13T10:03:51;23.17;;;12.15;;
79460;SDS011;68929;42.666;23.324;2023-10-13T10:06:38;31.30;;;13.00;;
79460;SDS011;68929;42.666;23.324;2023-10-13T10:09:09;26.52;;;12.30;;
79460;SDS011;68929;42.666;23.324;2023-10-13T10:12:14;34.38;;;12.73;;
79460;SDS011;68929;42.666;23.324;2023-10-13T10:17:26;18.95;;;8.65;;
79460;SDS011;68929;42.666;23.324;2023-10-13T10:19:54;22.23;;;9.05;;
79460;SDS011;68929;42.666;23.324;2023-10-13T10:22:28;19.75;;;8.68;;
79460;SDS011;68929;42.666;23.324;2023-10-13T10:25:04;18.73;;;7.80;;
79460;SDS011;68929;42.666;23.324;2023-10-13T10:27:58;15.30;;;8.13;;
79460;SDS011;68929;42.666;23.324;2023-10-13T10:30:30;21.98;;;8.70;;
79460;SDS011;68929;42.666;23.324;2023-10-13T10:33:04;17.50;;;8.32;;
79460;SDS011;68929;42.666;23.324;2023-10-13T10:35:58;7.97;;;4.28;;
79460;SDS011;68929;42.666;23.324;2023-10-13T10:38:25;11.73;;;5.65;;
79460;SDS011;68929;42.666;23.324;2023-10-13T10:41:05;14.88;;;5.47;;
79460;SDS011;68929;42.666;23.324;2023-10-13T10:48:53;8.57;;;4.85;;
79460;SDS011;68929;42.666;23.324;2023-10-13T10:51:30;9.38;;;4.13;;
79460;SDS011;68929;42.666;23.324;2023-10-13T10:54:00;11.35;;;4.55;;
79460;SDS011;68929;42.666;23.324;2023-10-13T10:56:38;9.98;;;4.70;;
79460;SDS011;68929;42.666;23.324;2023-10-13T10:59:04;10.43;;;5.95;;
79460;SDS011;68929;42.666;23.324;2023-10-13T11:01:48;12.95;;;5.88;;
79460;SDS011;68929;42.666;23.324;2023-10-13T11:04:23;13.13;;;7.10;;
79460;SDS011;68929;42.666;23.324;2023-10-13T11:07:29;12.15;;;5.93;;
79460;SDS011;68929;42.666;23.324;2023-10-13T11:09:56;16.58;;;6.35;;
79460;SDS011;68929;42.666;23.324;2023-10-13T11:13:05;11.90;;;6.47;;
79460;SDS011;68929;42.666;23.324;2023-10-13T11:15:43;17.10;;;6.00;;
79460;SDS011;68929;42.666;23.324;2023-10-13T11:18:14;15.65;;;6.07;;
79460;SDS011;68929;42.666;23.324;2023-10-13T11:20:59;17.48;;;5.60;;
79460;SDS011;68929;42.666;23.324;2023-10-13T11:23:28;11.52;;;5.40;;
79460;SDS011;68929;42.666;23.324;2023-10-13T11:25:57;10.30;;;5.30;;
79460;SDS011;68929;42.666;23.324;2023-10-13T11:28:24;10.38;;;5.05;;
79460;SDS011;68929;42.666;23.324;2023-10-13T11:30:55;13.30;;;5.85;;
79460;SDS011;68929;42.666;23.324;2023-10-13T11:33:35;13.35;;;5.40;;
79460;SDS011;68929;42.666;23.324;2023-10-13T11:36:01;10.38;;;5.22;;
79460;SDS011;68929;42.666;23.324;2023-10-13T11:38:29;10.70;;;4.28;;
79460;SDS011;68929;42.666;23.324;2023-10-13T11:41:05;9.52;;;3.58;;
79460;SDS011;68929;42.666;23.324;2023-10-13T11:43:31;6.72;;;3.10;;
79460;SDS011;68929;42.666;23.324;2023-10-13T11:46:03;7.05;;;4.38;;
79460;SDS011;68929;42.666;23.324;2023-10-13T11:48:40;12.88;;;4.20;;
79460;SDS011;68929;42.666;23.324;2023-10-13T11:51:19;8.35;;;4.07;;
79460;SDS011;68929;42.666;23.324;2023-10-13T11:54:02;11.65;;;3.50;;
79460;SDS011;68929;42.666;23.324;2023-10-13T11:58:52;8.60;;;3.27;;
79460;SDS011;68929;42.666;23.324;2023-10-13T12:01:18;7.10;;;3.17;;
79460;SDS011;68929;42.666;23.324;2023-10-13T12:03:48;13.85;;;3.47;;
79460;SDS011;68929;42.666;23.324;2023-10-13T12:06:36;6.68;;;3.40;;
79460;SDS011;68929;42.666;23.324;2023-10-13T12:09:08;7.78;;;3.78;;
79460;SDS011;68929;42.666;23.324;2023-10-13T12:11:47;5.25;;;2.78;;
79460;SDS011;68929;42.666;23.324;2023-10-13T12:14:19;10.63;;;3.40;;
79460;SDS011;68929;42.666;23.324;2023-10-13T12:16:51;10.13;;;4.10;;
79460;SDS011;68929;42.666;23.324;2023-10-13T12:19:20;8.82;;;3.35;;
79460;SDS011;68929;42.666;23.324;2023-10-13T12:21:55;8.88;;;3.28;;
79460;SDS011;68929;42.666;23.324;2023-10-13T12:24:29;12.75;;;4.07;;
79460;SDS011;68929;42.666;23.324;2023-10-13T12:27:00;7.68;;;3.70;;
79460;SDS011;68929;42.666;23.324;2023-10-13T12:29:26;5.25;;;3.35;;
79460;SDS011;68929;42.666;23.324;2023-10-13T12:31:57;9.05;;;3.78;;
79460;SDS011;68929;42.666;23.324;2023-10-13T12:34:39;6.43;;;3.25;;
79460;SDS011;68929;42.666;23.324;2023-10-13T12:37:30;8.70;;;3.55;;
79460;SDS011;68929;42.666;23.324;2023-10-13T12:40:17;6.78;;;3.65;;
79460;SDS011;68929;42.666;23.324;2023-10-13T12:43:03;6.43;;;3.20;;
79460;SDS011;68929;42.666;23.324;2023-10-13T12:45:49;6.53;;;3.15;;
79460;SDS011;68929;42.666;23.324;2023-10-13T12:48:38;9.60;;;3.53;;
79460;SDS011;68929;42.666;23.324;2023-10-13T12:51:30;6.65;;;3.47;;
79460;SDS011;68929;42.666;23.324;2023-10-13T12:53:56;3.65;;;2.20;;
79460;SDS011;68929;42.666;23.324;2023-10-13T12:56:34;10.00;;;3.38;;
79460;SDS011;68929;42.666;23.324;2023-10-13T12:59:11;8.15;;;3.28;;
79460;SDS011;68929;42.666;23.324;2023-10-13T13:01:40;9.68;;;3.35;;
79460;SDS011;68929;42.666;23.324;2023-10-13T13:04:07;5.00;;;2.42;;
79460;SDS011;68929;42.666;23.324;2023-10-13T13:06:41;3.78;;;2.33;;
79460;SDS011;68929;42.666;23.324;2023-10-13T13:09:18;6.47;;;2.95;;
79460;SDS011;68929;42.666;23.324;2023-10-13T13:11:55;7.88;;;3.20;;
79460;SDS011;68929;42.666;23.324;2023-10-13T13:14:50;4.30;;;3.03;;
79460;SDS011;68929;42.666;23.324;2023-10-13T13:17:24;7.22;;;3.13;;
79460;SDS011;68929;42.666;23.324;2023-10-13T13:19:50;6.47;;;3.13;;
79460;SDS011;68929;42.666;23.324;2023-10-13T13:22:15;6.28;;;2.90;;
79460;SDS011;68929;42.666;23.324;2023-10-13T13:24:43;5.57;;;2.78;;
79460;SDS011;68929;42.666;23.324;2023-10-13T13:27:13;6.38;;;2.85;;
79460;SDS011;68929;42.666;23.324;2023-10-13T13:29:42;8.25;;;3.25;;
79460;SDS011;68929;42.666;23.324;2023-10-13T13:32:11;10.68;;;3.10;;
79460;SDS011;68929;42.666;23.324;2023-10-13T13:37:44;3.83;;;2.78;;
79460;SDS011;68929;42.666;23.324;2023-10-13T13:40:12;8.68;;;3.55;;
79460;SDS011;68929;42.666;23.324;2023-10-13T13:42:40;8.75;;;3.42;;
79460;SDS011;68929;42.666;23.324;2023-10-13T13:45:18;5.85;;;3.05;;
79460;SDS011;68929;42.666;23.324;2023-10-13T13:48:04;8.52;;;3.42;;
79460;SDS011;68929;42.666;23.324;2023-10-13T13:50:33;13.93;;;3.80;;
79460;SDS011;68929;42.666;23.324;2023-10-13T13:53:08;6.18;;;3.00;;
79460;SDS011;68929;42.666;23.324;2023-10-13T13:55:36;4.65;;;2.80;;
79460;SDS011;68929;42.666;23.324;2023-10-13T13:58:05;7.35;;;3.40;;
79460;SDS011;68929;42.666;23.324;2023-10-13T14:00:38;4.70;;;2.80;;
79460;SDS011;68929;42.666;23.324;2023-10-13T14:03:13;8.25;;;3.42;;
79460;SDS011;68929;42.666;23.324;2023-10-13T14:05:56;10.55;;;3.03;;
79460;SDS011;68929;42.666;23.324;2023-10-13T14:08:25;7.70;;;2.90;;
79460;SDS011;68929;42.666;23.324;2023-10-13T14:10:52;8.68;;;3.47;;
79460;SDS011;68929;42.666;23.324;2023-10-13T14:13:41;6.05;;;3.78;;
79460;SDS011;68929;42.666;23.324;2023-10-13T14:16:43;8.45;;;3.67;;
79460;SDS011;68929;42.666;23.324;2023-10-13T14:19:39;9.75;;;3.60;;
79460;SDS011;68929;42.666;23.324;2023-10-13T14:22:10;6.65;;;3.55;;
79460;SDS011;68929;42.666;23.324;2023-10-13T14:24:37;9.68;;;3.80;;
79460;SDS011;68929;42.666;23.324;2023-10-13T14:27:13;9.05;;;4.28;;
79460;SDS011;68929;42.666;23.324;2023-10-13T14:29:42;5.75;;;3.13;;
79460;SDS011;68929;42.666;23.324;2023-10-13T14:32:08;6.53;;;3.60;;
79460;SDS011;68929;42.666;23.324;2023-10-13T14:34:41;5.90;;;2.60;;
79460;SDS011;68929;42.666;23.324;2023-10-13T14:37:12;7.68;;;2.20;;
79460;SDS011;68929;42.666;23.324;2023-10-13T14:39:56;7.00;;;2.90;;
79460;SDS011;68929;42.666;23.324;2023-10-13T14:42:25;4.97;;;3.00;;
79460;SDS011;68929;42.666;23.324;2023-10-13T14:44:51;3.83;;;2.45;;
79460;SDS011;68929;42.666;23.324;2023-10-13T14:47:27;7.70;;;3.30;;
79460;SDS011;68929;42.666;23.324;2023-10-13T14:49:53;7.20;;;3.90;;
79460;SDS011;68929;42.666;23.324;2023-10-13T14:52:20;7.45;;;3.88;;
79460;SDS011;68929;42.666;23.324;2023-10-13T14:55:01;10.50;;;3.50;;
79460;SDS011;68929;42.666;23.324;2023-10-13T14:57:37;10.10;;;3.30;;
79460;SDS011;68929;42.666;23.324;2023-10-13T15:02:28;14.23;;;5.10;;
79460;SDS011;68929;42.666;23.324;2023-10-13T15:04:53;16.55;;;5.35;;
79460;SDS011;68929;42.666;23.324;2023-10-13T15:07:18;17.23;;;5.53;;
79460;SDS011;68929;42.666;23.324;2023-10-13T15:09:45;20.70;;;5.60;;
79460;SDS011;68929;42.666;23.324;2023-10-13T15:12:10;21.80;;;5.82;;
79460;SDS011;68929;42.666;23.324;2023-10-13T15:14:37;18.00;;;5.53;;
79460;SDS011;68929;42.666;23.324;2023-10-13T15:17:04;18.05;;;5.32;;
79460;SDS011;68929;42.666;23.324;2023-10-13T15:19:32;25.73;;;5.50;;
79460;SDS011;68929;42.666;23.324;2023-10-13T15:22:09;21.17;;;6.10;;
79460;SDS011;68929;42.666;23.324;2023-10-13T15:24:50;20.38;;;5.78;;
79460;SDS011;68929;42.666;23.324;2023-10-13T15:27:33;14.65;;;5.93;;
79460;SDS011;68929;42.666;23.324;2023-10-13T15:30:06;19.73;;;6.40;;
79460;SDS011;68929;42.666;23.324;2023-10-13T15:32:45;27.08;;;6.90;;
79460;SDS011;68929;42.666;23.324;2023-10-13T15:35:10;25.75;;;6.80;;
79460;SDS011;68929;42.666;23.324;2023-10-13T15:37:37;22.77;;;7.00;;